Mesa.AZweather.com - Mesa, AZ
   Red Mountain Frwy and University Dr., El 1518 ft.
        --- Friday  Feb. 8, 2019 ---
 
 High Temperature ..  68F at 15:47
 Low Temperature ...  29F at 05:57
 
 High Humidity .....  86% at 07:58
 Low Humidity ......  22% at 16:48
 
 Rainfall Total ....  0.00 in.
 
 High Wind Speed ... ---
                     
 
 High Barometer ....  30.16 at 00:00
 Low Barometer .....  29.98 at 22:45
 
Dew Point    High .... 32   Low ..... 22
 
 
 Time   Temp  Humi  Rain     Baro  DewPt  Wind
00:00,  38F, 54%, 0.00 in, 30.16, 22F, ---
00:30,  36F, 60%, 0.00 in, 30.15, 23F, ---
01:00,  35F, 64%, 0.00 in, 30.15, 25F, ---
01:30,  34F, 67%, 0.00 in, 30.15, 24F, ---
02:00,  33F, 70%, 0.00 in, 30.14, 25F, ---
02:30,  32F, 74%, 0.00 in, 30.13, 25F, ---
03:00,  32F, 76%, 0.00 in, 30.12, 25F, ---
03:30,  32F, 79%, 0.00 in, 30.12, 26F, ---
04:00,  32F, 80%, 0.00 in, 30.12, 27F, ---
04:30,  31F, 80%, 0.00 in, 30.11, 25F, ---
05:00,  30F, 81%, 0.00 in, 30.12, 25F, ---
05:30,  30F, 82%, 0.00 in, 30.12, 25F, ---
06:00,  30F, 83%, 0.00 in, 30.13, 26F, ---
06:30,  29F, 84%, 0.00 in, 30.13, 24F, ---
07:00,  29F, 85%, 0.00 in, 30.13, 24F, ---
07:30,  29F, 85%, 0.00 in, 30.13, 24F, ---
08:00,  30F, 86%, 0.00 in, 30.13, 27F, ---
08:30,  33F, 83%, 0.00 in, 30.15, 29F, ---
09:00,  38F, 73%, 0.00 in, 30.15, 30F, ---
09:30,  42F, 56%, 0.00 in, 30.15, 28F, ---
10:00,  46F, 47%, 0.00 in, 30.14, 27F, ---
10:30,  51F, 44%, 0.00 in, 30.14, 31F, ---
11:00,  54F, 39%, 0.00 in, 30.13, 29F, ---
11:30,  56F, 35%, 0.00 in, 30.12, 28F, ---
12:00,  58F, 33%, 0.00 in, 30.10, 28F, ---
12:30,  61F, 30%, 0.00 in, 30.08, 29F, ---
13:00,  62F, 28%, 0.00 in, 30.06, 29F, ---
13:30,  64F, 27%, 0.00 in, 30.04, 30F, ---
14:00,  65F, 28%, 0.00 in, 30.02, 31F, ---
14:30,  66F, 27%, 0.00 in, 30.02, 31F, ---
15:00,  67F, 26%, 0.00 in, 30.02, 30F, ---
15:30,  67F, 24%, 0.00 in, 30.01, 28F, ---
16:00,  68F, 24%, 0.00 in, 30.00, 30F, ---
16:30,  68F, 23%, 0.00 in, 29.99, 29F, ---
17:00,  67F, 23%, 0.00 in, 30.00, 27F, ---
17:30,  66F, 25%, 0.00 in, 30.01, 29F, ---
18:00,  63F, 26%, 0.00 in, 30.01, 27F, ---
18:30,  59F, 31%, 0.00 in, 30.00, 28F, ---
19:00,  55F, 36%, 0.00 in, 30.01, 29F, ---
19:30,  52F, 43%, 0.00 in, 30.01, 30F, ---
20:00,  49F, 49%, 0.00 in, 30.01, 30F, ---
20:30,  47F, 51%, 0.00 in, 30.01, 29F, ---
21:00,  45F, 55%, 0.00 in, 30.00, 29F, ---
21:30,  44F, 59%, 0.00 in, 30.00, 31F, ---
22:00,  43F, 61%, 0.00 in, 29.99, 30F, ---
22:30,  43F, 61%, 0.00 in, 29.99, 30F, ---
23:00,  42F, 62%, 0.00 in, 29.99, 31F, ---
23:30,  41F, 63%, 0.00 in, 29.99, 29F, ---
23:59,  40F, 66%, 0.00 in, 30.00, 29F, ---